createdAt,value
2023-03-02T00:01:03.005Z,100141.94
2023-03-02T00:03:30.547Z,100143.62
2023-03-02T00:05:58.131Z,100138.03
2023-03-02T00:08:25.268Z,100129.47
2023-03-02T00:10:54.561Z,100127.34
2023-03-02T00:13:21.706Z,100135.06
2023-03-02T00:15:48.873Z,100129.84
2023-03-02T00:18:16.362Z,100135.47
2023-03-02T00:20:43.490Z,100139.34
2023-03-02T00:23:10.644Z,100130.75
2023-03-02T00:25:38.052Z,100128.87
2023-03-02T00:28:05.173Z,100124.97
2023-03-02T00:30:32.327Z,100121.53
2023-03-02T00:32:59.757Z,100119.34
2023-03-02T00:35:29.696Z,100118.41
2023-03-02T00:37:56.860Z,100120.38
2023-03-02T00:40:24.295Z,100116.66
2023-03-02T00:42:51.466Z,100115.28
2023-03-02T00:45:18.620Z,100110.84
2023-03-02T00:47:46.528Z,100109.56
2023-03-02T00:50:13.698Z,100106.28
2023-03-02T00:52:40.874Z,100109.44
2023-03-02T00:55:09.381Z,100113.75
2023-03-02T00:57:36.592Z,100112.72
2023-03-02T01:00:05.035Z,100110.06
2023-03-02T01:02:32.914Z,100105.94
2023-03-02T01:05:00.346Z,100098.19
2023-03-02T01:07:28.531Z,100094.25
2023-03-02T01:09:56.036Z,100086.31
2023-03-02T01:12:23.210Z,100075.72
2023-03-02T01:14:50.917Z,100075.47
2023-03-02T01:17:19.403Z,100078.69
2023-03-02T01:19:46.798Z,100072.75
2023-03-02T01:22:13.923Z,100068.84
2023-03-02T01:24:41.363Z,100060.19
2023-03-02T01:27:08.688Z,100056.69
2023-03-02T01:29:36.126Z,100053.53
2023-03-02T01:32:03.897Z,100049.50
2023-03-02T01:34:31.049Z,100039.94
2023-03-02T01:36:58.201Z,100044.34
2023-03-02T01:39:25.657Z,100036.56
2023-03-02T01:41:52.924Z,100029.91
2023-03-02T01:44:39.606Z,100034.19
2023-03-02T01:47:25.674Z,100037.44
2023-03-02T01:49:56.014Z,100028.94
2023-03-02T01:52:24.168Z,100015.62
2023-03-02T01:54:51.814Z,100026.28
2023-03-02T01:57:20.497Z,100028.62
2023-03-02T01:59:48.003Z,100019.97
2023-03-02T02:02:15.208Z,100019.28
2023-03-02T02:04:42.968Z,100012.75
2023-03-02T02:07:10.213Z,100003.97
2023-03-02T02:09:39.350Z,99998.31
2023-03-02T02:12:07.096Z,100002.25
2023-03-02T02:14:34.499Z,100003.37
2023-03-02T02:17:01.705Z,100007.34
2023-03-02T02:19:33.486Z,100001.22
2023-03-02T02:22:01.389Z,100001.12
2023-03-02T02:24:38.161Z,99992.81
2023-03-02T02:27:05.597Z,99991.97
2023-03-02T02:29:37.462Z,99992.94
2023-03-02T02:32:12.198Z,99997.00
2023-03-02T02:34:41.562Z,99995.03
2023-03-02T02:37:11.306Z,99991.28
2023-03-02T02:39:39.606Z,99995.03
2023-03-02T02:42:08.196Z,99999.75
2023-03-02T02:44:35.364Z,99994.97
2023-03-02T02:47:02.532Z,99997.94
2023-03-02T02:49:36.255Z,99988.22
2023-03-02T02:52:04.555Z,99987.31
2023-03-02T02:54:32.020Z,99989.69
2023-03-02T02:56:59.710Z,99995.59
2023-03-02T02:59:34.006Z,99984.47
2023-03-02T03:02:01.546Z,99986.75
2023-03-02T03:04:30.258Z,99987.78
2023-03-02T03:07:01.803Z,99977.34
2023-03-02T03:09:30.254Z,99981.25
2023-03-02T03:11:58.871Z,99982.69
2023-03-02T03:14:35.626Z,99975.53
2023-03-02T03:17:03.172Z,99974.25
2023-03-02T03:19:33.405Z,99979.56
2023-03-02T03:22:01.382Z,99980.00
2023-03-02T03:24:30.307Z,99985.28
2023-03-02T03:26:58.250Z,99978.94
2023-03-02T03:29:26.774Z,99985.47
2023-03-02T03:31:56.183Z,99986.81
2023-03-02T03:34:23.897Z,99984.94
2023-03-02T03:36:51.019Z,99985.97
2023-03-02T03:39:19.625Z,99991.97
2023-03-02T03:41:47.383Z,99994.97
2023-03-02T03:44:14.878Z,99996.62
2023-03-02T03:46:42.590Z,99998.22
2023-03-02T03:49:10.086Z,99995.44
2023-03-02T03:51:37.395Z,99997.47
2023-03-02T03:54:08.043Z,99997.31
2023-03-02T03:56:37.262Z,100002.69
2023-03-02T03:59:08.089Z,99999.63
2023-03-02T04:01:40.720Z,100006.75
2023-03-02T04:04:10.740Z,99997.38
2023-03-02T04:06:38.782Z,100001.47
2023-03-02T04:09:06.447Z,100007.94
2023-03-02T04:11:35.080Z,100011.59
2023-03-02T04:14:02.564Z,100012.72
2023-03-02T04:16:30.586Z,100010.25
2023-03-02T04:18:58.529Z,100010.53
2023-03-02T04:21:26.072Z,100012.22
2023-03-02T04:23:53.652Z,100013.91
2023-03-02T04:26:22.530Z,100011.06
2023-03-02T04:28:50.870Z,100010.19
2023-03-02T04:31:18.809Z,99998.81
2023-03-02T04:33:46.254Z,100002.63
2023-03-02T04:36:13.730Z,100002.03
2023-03-02T04:38:40.985Z,100003.19
2023-03-02T04:41:08.458Z,100001.75
2023-03-02T04:43:35.589Z,99997.88
2023-03-02T04:46:02.793Z,99993.56
2023-03-02T04:48:30.255Z,99997.38
2023-03-02T04:50:57.675Z,99992.72
2023-03-02T04:53:24.843Z,99996.03
2023-03-02T04:55:52.303Z,99994.09
2023-03-02T04:58:19.435Z,99991.47
2023-03-02T05:00:46.602Z,99991.78
2023-03-02T05:03:14.000Z,100000.25
2023-03-02T05:05:41.146Z,99995.66
2023-03-02T05:08:08.345Z,100000.66
2023-03-02T05:10:35.742Z,100004.81
2023-03-02T05:13:04.826Z,99994.72
2023-03-02T05:15:33.452Z,99995.06
2023-03-02T05:18:01.058Z,99993.63
2023-03-02T05:20:30.344Z,100002.28
2023-03-02T05:22:58.721Z,100003.66
2023-03-02T05:25:26.373Z,99997.28
2023-03-02T05:27:53.477Z,100006.13
2023-03-02T05:30:20.921Z,100001.09
2023-03-02T05:32:48.771Z,100005.75
2023-03-02T05:35:16.313Z,100007.50
2023-03-02T05:37:44.784Z,100003.13
2023-03-02T05:40:13.743Z,100013.53
2023-03-02T05:42:41.498Z,100011.78
2023-03-02T05:45:09.760Z,100009.84
2023-03-02T05:47:37.212Z,100015.75
2023-03-02T05:50:04.534Z,100012.94
2023-03-02T05:52:31.676Z,100016.63
2023-03-02T05:54:59.591Z,100015.06
2023-03-02T05:57:26.824Z,100015.09
2023-03-02T05:59:54.005Z,100018.16
2023-03-02T06:02:21.408Z,100019.78
2023-03-02T06:04:49.091Z,100017.38
2023-03-02T06:07:16.238Z,100021.91
2023-03-02T06:09:43.389Z,100019.87
2023-03-02T06:12:10.848Z,100025.19
2023-03-02T06:14:37.996Z,100024.88
2023-03-02T06:17:05.117Z,100019.03
2023-03-02T06:19:32.611Z,100020.00
2023-03-02T06:21:59.766Z,100020.31
2023-03-02T06:24:26.926Z,100023.37
2023-03-02T06:26:54.427Z,100025.62
2023-03-02T06:29:21.905Z,100029.44
2023-03-02T06:31:49.100Z,100033.31
2023-03-02T06:34:16.521Z,100031.81
2023-03-02T06:36:43.673Z,100038.34
2023-03-02T06:39:15.753Z,100047.00
2023-03-02T06:41:43.489Z,100041.09
2023-03-02T06:44:10.625Z,100049.16
2023-03-02T06:46:37.987Z,100052.97
2023-03-02T06:49:05.634Z,100051.56
2023-03-02T06:51:32.783Z,100046.75
2023-03-02T06:53:59.981Z,100054.31
2023-03-02T06:56:27.386Z,100047.84
2023-03-02T06:58:54.547Z,100049.06
2023-03-02T07:01:21.766Z,100051.94
2023-03-02T07:03:49.226Z,100056.09
2023-03-02T07:06:16.445Z,100053.91
2023-03-02T07:08:43.592Z,100058.50
2023-03-02T07:11:11.756Z,100064.09
2023-03-02T07:13:39.394Z,100045.88
2023-03-02T07:16:07.861Z,100048.62
2023-03-02T07:18:35.630Z,100052.56
2023-03-02T07:21:02.899Z,100045.62
2023-03-02T07:23:30.147Z,100043.91
2023-03-02T07:25:57.960Z,100048.06
2023-03-02T07:28:25.379Z,100041.25
2023-03-02T07:30:53.340Z,100047.47
2023-03-02T07:33:21.218Z,100047.09
2023-03-02T07:35:48.436Z,100043.44
2023-03-02T07:38:15.648Z,100046.66
2023-03-02T07:40:43.118Z,100046.94
2023-03-02T07:43:10.632Z,100044.03
2023-03-02T07:45:38.182Z,100051.59
2023-03-02T07:48:05.767Z,100043.69
2023-03-02T07:50:32.974Z,100051.13
2023-03-02T07:53:00.205Z,100046.69
2023-03-02T07:55:27.673Z,100043.44
2023-03-02T07:57:54.866Z,100048.31
2023-03-02T08:00:22.065Z,100041.81
2023-03-02T08:02:49.551Z,100045.53
2023-03-02T08:05:16.951Z,100046.87
2023-03-02T08:07:45.897Z,100048.53
2023-03-02T08:10:13.356Z,100038.03
2023-03-02T08:12:40.573Z,100041.59
2023-03-02T08:15:08.014Z,100041.00
2023-03-02T08:17:35.447Z,100038.94
2023-03-02T08:20:03.331Z,100037.59
2023-03-02T08:22:30.523Z,100031.81
2023-03-02T08:24:58.009Z,100034.50
2023-03-02T08:27:25.173Z,100033.56
2023-03-02T08:29:54.176Z,100034.25
2023-03-02T08:32:21.697Z,100024.50
2023-03-02T08:34:51.721Z,100030.87
2023-03-02T08:37:19.240Z,100025.06
2023-03-02T08:39:46.700Z,100035.22
2023-03-02T08:42:13.846Z,100028.28
2023-03-02T08:44:41.097Z,100021.81
2023-03-02T08:47:08.498Z,100018.75
2023-03-02T08:49:37.907Z,100024.25
2023-03-02T08:52:05.136Z,100017.72
2023-03-02T08:54:34.538Z,100016.41
2023-03-02T08:57:02.112Z,100014.19
2023-03-02T08:59:29.322Z,100020.31
2023-03-02T09:01:56.795Z,100019.34
2023-03-02T09:04:24.112Z,100012.41
2023-03-02T09:06:51.299Z,100007.75
2023-03-02T09:09:18.762Z,100020.88
2023-03-02T09:11:46.502Z,100018.16
2023-03-02T09:14:13.667Z,100009.50
2023-03-02T09:16:41.166Z,100013.94
2023-03-02T09:19:08.353Z,100016.25
2023-03-02T09:21:35.838Z,100007.19
2023-03-02T09:24:03.449Z,100016.69
2023-03-02T09:26:30.632Z,100010.88
2023-03-02T09:28:57.827Z,100002.81
2023-03-02T09:31:25.419Z,100003.56
2023-03-02T09:33:52.899Z,100011.28
2023-03-02T09:36:21.733Z,99991.97
2023-03-02T09:38:49.174Z,100001.91
2023-03-02T09:41:19.264Z,100008.81
2023-03-02T09:43:52.475Z,99999.78
2023-03-02T09:46:23.646Z,99999.94
2023-03-02T09:48:57.069Z,100006.72
2023-03-02T09:51:40.332Z,100004.09
2023-03-02T09:54:10.615Z,100007.81
2023-03-02T09:56:40.259Z,100008.97
2023-03-02T09:59:09.152Z,100001.72
2023-03-02T10:01:38.617Z,100002.09
2023-03-02T10:04:26.646Z,100006.34
2023-03-02T10:06:58.316Z,99996.34
2023-03-02T10:09:25.761Z,99994.97
2023-03-02T10:12:14.625Z,99995.38
2023-03-02T10:14:43.024Z,99990.09
2023-03-02T10:17:23.457Z,99994.41
2023-03-02T10:19:53.386Z,99997.03
2023-03-02T10:22:39.314Z,99999.44
2023-03-02T10:25:24.365Z,99993.47
2023-03-02T10:27:52.825Z,99981.41
2023-03-02T10:30:22.039Z,99983.38
2023-03-02T10:32:50.399Z,99979.28
2023-03-02T10:35:22.991Z,99980.69
2023-03-02T10:38:09.889Z,99977.13
2023-03-02T10:40:45.433Z,99971.37
2023-03-02T10:43:17.832Z,99968.75
2023-03-02T10:45:45.011Z,99967.84
2023-03-02T10:48:13.459Z,99961.22
2023-03-02T10:50:42.057Z,99956.81
2023-03-02T10:53:18.460Z,99949.16
2023-03-02T10:55:47.302Z,99950.69
2023-03-02T10:58:25.767Z,99949.84
2023-03-02T11:01:00.354Z,99947.97
2023-03-02T11:03:27.680Z,99946.88
2023-03-02T11:05:55.084Z,99949.66
2023-03-02T11:08:23.179Z,99939.78
2023-03-02T11:10:57.001Z,99930.47
2023-03-02T11:13:32.308Z,99937.66
2023-03-02T11:16:00.510Z,99934.72
2023-03-02T11:18:29.619Z,99934.03
2023-03-02T11:21:15.686Z,99927.44
2023-03-02T11:24:01.654Z,99926.09
2023-03-02T11:26:31.167Z,99925.50
2023-03-02T11:28:58.614Z,99930.97
2023-03-02T11:31:32.856Z,99921.97
2023-03-02T11:34:20.717Z,99914.41
2023-03-02T11:37:02.490Z,99917.44
2023-03-02T11:39:41.154Z,99919.13
2023-03-02T11:42:20.477Z,99916.84
2023-03-02T11:44:48.352Z,99915.13
2023-03-02T11:47:15.595Z,99905.28
2023-03-02T11:49:45.177Z,99903.91
2023-03-02T11:52:17.624Z,99908.00
2023-03-02T11:54:46.107Z,99903.84
2023-03-02T11:57:21.936Z,99906.91
2023-03-02T11:59:49.165Z,99900.88
2023-03-02T12:02:16.689Z,99892.81
2023-03-02T12:04:44.411Z,99890.09
2023-03-02T12:07:19.048Z,99892.22
2023-03-02T12:09:56.104Z,99891.94
2023-03-02T12:12:25.981Z,99898.50
2023-03-02T12:14:53.459Z,99893.50
2023-03-02T12:17:26.660Z,99891.25
2023-03-02T12:19:55.027Z,99884.56
2023-03-02T12:22:26.332Z,99887.56
2023-03-02T12:24:59.867Z,99879.97
2023-03-02T12:27:27.253Z,99884.63
2023-03-02T12:30:09.561Z,99880.94
2023-03-02T12:32:36.837Z,99894.47
2023-03-02T12:35:06.984Z,99877.16
2023-03-02T12:37:51.889Z,99875.47
2023-03-02T12:40:38.095Z,99878.91
2023-03-02T12:43:19.832Z,99876.28
2023-03-02T12:45:50.374Z,99875.00
2023-03-02T12:48:20.839Z,99872.53
2023-03-02T12:50:48.499Z,99861.31
2023-03-02T12:53:17.544Z,99861.81
2023-03-02T12:55:44.799Z,99857.72
2023-03-02T12:58:17.859Z,99854.34
2023-03-02T13:00:50.020Z,99844.38
2023-03-02T13:03:17.542Z,99845.62
2023-03-02T13:05:46.518Z,99840.56
2023-03-02T13:08:16.468Z,99832.00
2023-03-02T13:10:47.708Z,99838.72
2023-03-02T13:13:25.661Z,99834.03
2023-03-02T13:15:57.908Z,99829.78
2023-03-02T13:18:26.324Z,99826.37
2023-03-02T13:20:53.980Z,99828.66
2023-03-02T13:23:21.304Z,99818.19
2023-03-02T13:25:48.415Z,99812.78
2023-03-02T13:28:22.837Z,99812.91
2023-03-02T13:30:50.990Z,99809.38
2023-03-02T13:33:20.784Z,99805.25
2023-03-02T13:35:48.039Z,99801.69
2023-03-02T13:38:19.162Z,99801.28
2023-03-02T13:40:48.383Z,99793.00
2023-03-02T13:43:35.071Z,99799.69
2023-03-02T13:46:03.720Z,99800.22
2023-03-02T13:48:31.208Z,99789.38
2023-03-02T13:51:03.582Z,99784.81
2023-03-02T13:53:31.638Z,99789.19
2023-03-02T13:56:00.257Z,99782.69
2023-03-02T13:58:28.233Z,99778.84
2023-03-02T14:00:55.679Z,99777.12
2023-03-02T14:03:27.660Z,99774.31
2023-03-02T14:05:56.616Z,99780.09
2023-03-02T14:08:24.137Z,99769.44
2023-03-02T14:10:57.030Z,99768.38
2023-03-02T14:13:25.584Z,99774.31
2023-03-02T14:15:53.218Z,99761.34
2023-03-02T14:18:24.520Z,99762.91
2023-03-02T14:20:52.006Z,99757.44
2023-03-02T14:23:19.182Z,99762.31
2023-03-02T14:25:46.374Z,99757.72
2023-03-02T14:28:18.048Z,99763.03
2023-03-02T14:30:46.138Z,99756.28
2023-03-02T14:33:15.909Z,99750.63
2023-03-02T14:35:43.140Z,99757.31
2023-03-02T14:38:10.841Z,99753.81
2023-03-02T14:40:38.525Z,99754.06
2023-03-02T14:43:05.841Z,99744.06
2023-03-02T14:45:32.971Z,99744.50
2023-03-02T14:48:00.423Z,99742.09
2023-03-02T14:50:27.579Z,99744.03
2023-03-02T14:52:55.358Z,99742.69
2023-03-02T14:55:25.876Z,99742.06
2023-03-02T14:57:54.329Z,99740.16
2023-03-02T15:00:21.661Z,99738.69
2023-03-02T15:02:49.223Z,99738.75
2023-03-02T15:05:16.462Z,99733.13
2023-03-02T15:07:43.646Z,99734.87
2023-03-02T15:10:15.460Z,99733.31
2023-03-02T15:12:42.680Z,99729.53
2023-03-02T15:15:10.140Z,99729.69
2023-03-02T15:17:37.611Z,99730.81
2023-03-02T15:20:06.192Z,99732.34
2023-03-02T15:22:33.526Z,99736.06
2023-03-02T15:25:00.964Z,99734.31
2023-03-02T15:27:28.166Z,99732.84
2023-03-02T15:29:56.871Z,99732.00
2023-03-02T15:32:24.553Z,99740.53
2023-03-02T15:34:51.700Z,99724.38
2023-03-02T15:37:18.879Z,99732.81
2023-03-02T15:39:46.352Z,99738.81
2023-03-02T15:42:14.067Z,99735.97
2023-03-02T15:44:41.339Z,99742.56
2023-03-02T15:47:10.480Z,99741.41
2023-03-02T15:49:37.614Z,99746.94
2023-03-02T15:52:04.770Z,99737.41
2023-03-02T15:54:32.186Z,99743.53
2023-03-02T15:56:59.354Z,99743.69
2023-03-02T15:59:27.456Z,99746.66
2023-03-02T16:01:59.276Z,99745.44
2023-03-02T16:04:27.288Z,99747.78
2023-03-02T16:06:55.009Z,99750.97
2023-03-02T16:09:25.310Z,99746.16
2023-03-02T16:11:52.987Z,99751.34
2023-03-02T16:14:20.157Z,99757.87
2023-03-02T16:16:47.397Z,99749.50
2023-03-02T16:19:17.717Z,99748.69
2023-03-02T16:21:46.265Z,99757.81
2023-03-02T16:24:13.863Z,99752.13
2023-03-02T16:26:41.336Z,99751.25
2023-03-02T16:29:08.486Z,99754.78
2023-03-02T16:31:37.797Z,99757.87
2023-03-02T16:34:09.459Z,99760.34
2023-03-02T16:36:37.479Z,99761.59
2023-03-02T16:39:05.128Z,99764.50
2023-03-02T16:41:32.575Z,99770.78
2023-03-02T16:43:59.910Z,99770.72
2023-03-02T16:46:28.290Z,99775.59
2023-03-02T16:48:56.007Z,99778.34
2023-03-02T16:51:23.182Z,99773.19
2023-03-02T16:53:50.349Z,99781.97
2023-03-02T16:56:17.780Z,99784.69
2023-03-02T16:58:44.982Z,99785.38
2023-03-02T17:01:13.530Z,99784.22
2023-03-02T17:03:41.365Z,99793.06
2023-03-02T17:06:08.931Z,99792.81
2023-03-02T17:08:36.242Z,99793.53
2023-03-02T17:11:03.720Z,99796.66
2023-03-02T17:13:30.863Z,99800.03
2023-03-02T17:15:58.665Z,99799.66
2023-03-02T17:18:28.880Z,99804.44
2023-03-02T17:20:56.853Z,99802.63
2023-03-02T17:23:24.135Z,99802.91
2023-03-02T17:25:51.758Z,99812.38
2023-03-02T17:28:18.949Z,99813.47
2023-03-02T17:30:46.592Z,99809.87
2023-03-02T17:33:14.141Z,99804.66
2023-03-02T17:35:42.610Z,99810.87
2023-03-02T17:38:10.132Z,99809.75
2023-03-02T17:40:37.578Z,99810.66
2023-03-02T17:43:04.703Z,99804.59
2023-03-02T17:45:31.821Z,99813.03
2023-03-02T17:47:59.247Z,99813.34
2023-03-02T17:50:26.916Z,99811.31
2023-03-02T17:52:55.323Z,99811.63
2023-03-02T17:55:22.921Z,99813.06
2023-03-02T17:57:50.052Z,99816.16
2023-03-02T18:00:18.378Z,99814.47
2023-03-02T18:02:45.840Z,99808.06
2023-03-02T18:05:13.224Z,99813.62
2023-03-02T18:07:40.470Z,99814.16
2023-03-02T18:10:08.211Z,99814.47
2023-03-02T18:12:35.425Z,99814.19
2023-03-02T18:15:02.869Z,99812.47
2023-03-02T18:17:30.975Z,99813.16
2023-03-02T18:19:58.173Z,99812.97
2023-03-02T18:22:25.488Z,99814.00
2023-03-02T18:24:53.066Z,99818.25
2023-03-02T18:27:20.338Z,99817.41
2023-03-02T18:29:47.531Z,99816.56
2023-03-02T18:32:15.267Z,99828.19
2023-03-02T18:34:42.468Z,99825.50
2023-03-02T18:37:09.657Z,99813.34
2023-03-02T18:39:40.225Z,99817.66
2023-03-02T18:42:07.593Z,99824.00
2023-03-02T18:44:35.066Z,99822.16
2023-03-02T18:47:02.826Z,99824.97
2023-03-02T18:49:29.994Z,99824.50
2023-03-02T18:51:57.333Z,99822.78
2023-03-02T18:54:24.843Z,99833.41
2023-03-02T18:56:52.078Z,99829.88
2023-03-02T18:59:19.253Z,99832.50
2023-03-02T19:01:47.273Z,99833.22
2023-03-02T19:04:14.697Z,99836.88
2023-03-02T19:06:42.393Z,99838.66
2023-03-02T19:09:10.339Z,99837.28
2023-03-02T19:11:37.605Z,99839.47
2023-03-02T19:14:04.874Z,99831.00
2023-03-02T19:16:32.533Z,99836.13
2023-03-02T19:18:59.693Z,99834.59
2023-03-02T19:21:27.068Z,99836.78
2023-03-02T19:23:54.756Z,99838.44
2023-03-02T19:26:21.958Z,99834.88
2023-03-02T19:28:49.319Z,99831.09
2023-03-02T19:31:17.752Z,99830.16
2023-03-02T19:33:45.451Z,99825.78
2023-03-02T19:36:12.998Z,99839.31
2023-03-02T19:38:44.500Z,99835.09
2023-03-02T19:41:13.015Z,99839.09
2023-03-02T19:43:41.985Z,99837.34
2023-03-02T19:46:12.318Z,99843.44
2023-03-02T19:48:39.663Z,99844.53
2023-03-02T19:51:07.866Z,99843.41
2023-03-02T19:53:35.628Z,99845.75
2023-03-02T19:56:03.689Z,99841.75
2023-03-02T19:58:33.159Z,99851.34
2023-03-02T20:01:00.758Z,99852.47
2023-03-02T20:03:28.205Z,99842.84
2023-03-02T20:05:55.998Z,99842.22
2023-03-02T20:08:23.220Z,99844.50
2023-03-02T20:10:50.751Z,99841.87
2023-03-02T20:13:18.133Z,99846.66
2023-03-02T20:15:46.519Z,99846.19
2023-03-02T20:18:15.778Z,99848.59
2023-03-02T20:20:45.182Z,99848.13
2023-03-02T20:23:12.912Z,99845.31
2023-03-02T20:25:40.342Z,99849.81
2023-03-02T20:28:09.131Z,99850.22
2023-03-02T20:30:38.029Z,99856.37
2023-03-02T20:33:06.357Z,99855.50
2023-03-02T20:35:33.836Z,99859.56
2023-03-02T20:38:01.892Z,99856.50
2023-03-02T20:40:30.621Z,99860.09
2023-03-02T20:42:57.975Z,99850.06
2023-03-02T20:45:25.187Z,99861.25
2023-03-02T20:47:52.656Z,99855.87
2023-03-02T20:50:21.333Z,99853.47
2023-03-02T20:52:48.512Z,99853.66
2023-03-02T20:55:16.005Z,99860.06
2023-03-02T20:57:43.352Z,99856.81
2023-03-02T21:00:13.704Z,99852.38
2023-03-02T21:02:41.170Z,99845.16
2023-03-02T21:05:08.582Z,99842.66
2023-03-02T21:07:35.849Z,99844.62
2023-03-02T21:10:07.847Z,99844.09
2023-03-02T21:12:35.862Z,99845.47
2023-03-02T21:15:04.082Z,99839.41
2023-03-02T21:17:31.523Z,99841.75
2023-03-02T21:19:58.837Z,99836.50
2023-03-02T21:22:27.460Z,99838.22
2023-03-02T21:24:54.625Z,99836.03
2023-03-02T21:27:21.836Z,99835.63
2023-03-02T21:29:49.497Z,99826.09
2023-03-02T21:32:16.750Z,99831.88
2023-03-02T21:34:44.939Z,99829.28
2023-03-02T21:37:12.530Z,99829.41
2023-03-02T21:39:39.871Z,99827.81
2023-03-02T21:42:07.000Z,99824.38
2023-03-02T21:44:34.454Z,99829.28
2023-03-02T21:47:01.595Z,99827.72
2023-03-02T21:49:28.858Z,99824.50
2023-03-02T21:51:56.281Z,99826.37
2023-03-02T21:54:23.440Z,99826.34
2023-03-02T21:56:50.592Z,99826.94
2023-03-02T21:59:18.003Z,99819.03
2023-03-02T22:01:45.205Z,99825.47
2023-03-02T22:04:12.721Z,99823.09
2023-03-02T22:06:39.890Z,99825.09
2023-03-02T22:09:07.052Z,99824.59
2023-03-02T22:11:35.884Z,99829.88
2023-03-02T22:14:12.892Z,99824.22
2023-03-02T22:16:41.287Z,99824.66
2023-03-02T22:19:20.318Z,99821.44
2023-03-02T22:21:48.442Z,99823.78
2023-03-02T22:24:33.968Z,99823.56
2023-03-02T22:27:20.334Z,99818.34
2023-03-02T22:29:47.847Z,99813.75
2023-03-02T22:32:19.536Z,99813.22
2023-03-02T22:34:47.592Z,99816.09
2023-03-02T22:37:19.234Z,99813.38
2023-03-02T22:39:46.966Z,99807.97
2023-03-02T22:42:15.840Z,99819.88
2023-03-02T22:44:43.741Z,99818.59
2023-03-02T22:47:15.422Z,99819.75
2023-03-02T22:49:43.087Z,99818.75
2023-03-02T22:52:14.565Z,99817.44
2023-03-02T22:54:41.685Z,99815.72
2023-03-02T22:57:25.554Z,99816.63
2023-03-02T22:59:52.712Z,99813.53
2023-03-02T23:02:22.370Z,99814.84
2023-03-02T23:04:50.224Z,99810.56
2023-03-02T23:07:18.572Z,99807.38
2023-03-02T23:09:46.067Z,99804.41
2023-03-02T23:12:16.084Z,99802.63
2023-03-02T23:14:58.713Z,99800.41
2023-03-02T23:17:36.534Z,99805.09
2023-03-02T23:20:04.993Z,99803.78
2023-03-02T23:22:32.483Z,99796.03
2023-03-02T23:24:59.633Z,99800.16
2023-03-02T23:27:27.795Z,99798.84
2023-03-02T23:29:55.200Z,99797.69
2023-03-02T23:32:22.395Z,99793.56
2023-03-02T23:34:50.153Z,99791.97
2023-03-02T23:37:17.598Z,99788.34
2023-03-02T23:39:46.166Z,99785.97
2023-03-02T23:42:13.379Z,99780.78
2023-03-02T23:44:40.786Z,99782.63
2023-03-02T23:47:07.998Z,99792.72
2023-03-02T23:49:35.152Z,99784.12
2023-03-02T23:52:03.600Z,99776.03
2023-03-02T23:54:30.786Z,99778.03
2023-03-02T23:56:57.908Z,99777.34
2023-03-02T23:59:25.346Z,99780.75
